createdAt,value
2023-02-05T00:03:30.180Z,7.10
2023-02-05T00:08:31.871Z,5.67
2023-02-05T00:13:33.479Z,2.77
2023-02-05T00:18:35.112Z,2.03
2023-02-05T00:23:37.269Z,2.17
2023-02-05T00:28:39.047Z,2.20
2023-02-05T00:33:41.039Z,1.93
2023-02-05T00:38:43.758Z,1.53
2023-02-05T00:43:45.820Z,3.50
2023-02-05T00:48:47.417Z,4.17
2023-02-05T00:53:49.133Z,3.63
2023-02-05T00:58:51.212Z,4.47
2023-02-05T01:03:52.935Z,3.23
2023-02-05T01:08:54.534Z,4.73
2023-02-05T01:13:56.155Z,4.13
2023-02-05T01:18:57.887Z,4.07
2023-02-05T01:24:01.606Z,4.43
2023-02-05T01:29:03.334Z,3.70
2023-02-05T01:34:04.917Z,5.10
2023-02-05T01:39:06.539Z,2.67
2023-02-05T01:44:10.838Z,3.90
2023-02-05T01:49:34.180Z,3.33
2023-02-05T01:54:39.086Z,2.90
2023-02-05T01:59:41.650Z,3.83
2023-02-05T02:04:48.428Z,3.97
2023-02-05T02:09:50.351Z,4.67
2023-02-05T02:14:55.962Z,1.70
2023-02-05T02:20:06.514Z,3.77
2023-02-05T02:25:16.932Z,2.50
2023-02-05T02:30:27.808Z,1.63
2023-02-05T02:35:39.957Z,3.60
2023-02-05T02:40:55.977Z,1.87
2023-02-05T02:46:05.746Z,2.90
2023-02-05T02:51:08.528Z,2.97
2023-02-05T02:56:12.344Z,2.77
2023-02-05T03:01:15.624Z,2.47
2023-02-05T03:06:18.640Z,2.90
2023-02-05T03:11:21.016Z,3.57
2023-02-05T03:16:24.474Z,2.77
2023-02-05T03:21:34.221Z,2.77
2023-02-05T03:26:36.666Z,3.00
2023-02-05T03:32:24.915Z,2.90
2023-02-05T03:37:45.608Z,2.63
2023-02-05T03:43:14.692Z,2.50
2023-02-05T03:48:37.193Z,4.07
2023-02-05T03:53:47.239Z,3.07
2023-02-05T03:58:51.204Z,2.83
2023-02-05T04:03:54.210Z,2.13
2023-02-05T04:08:55.936Z,2.33
2023-02-05T04:13:59.074Z,3.10
2023-02-05T04:19:00.799Z,2.43
2023-02-05T04:24:03.205Z,2.27
2023-02-05T04:29:05.819Z,2.73
2023-02-05T04:34:13.109Z,2.33
2023-02-05T04:39:14.844Z,1.80
2023-02-05T04:44:16.620Z,2.97
2023-02-05T04:49:18.241Z,3.37
2023-02-05T04:54:19.943Z,2.03
2023-02-05T04:59:21.563Z,2.33
2023-02-05T05:04:23.134Z,4.17
2023-02-05T05:09:25.308Z,3.53
2023-02-05T05:14:28.047Z,3.27
2023-02-05T05:19:29.630Z,2.13
2023-02-05T05:24:31.249Z,2.13
2023-02-05T05:29:34.019Z,2.83
2023-02-05T05:34:35.664Z,3.47
2023-02-05T05:39:55.972Z,4.30
2023-02-05T05:44:57.596Z,3.57
2023-02-05T05:49:59.194Z,2.97
2023-02-05T05:55:00.873Z,3.20
2023-02-05T06:00:02.895Z,3.50
2023-02-05T06:05:13.856Z,2.13
2023-02-05T06:10:15.571Z,3.87
2023-02-05T06:15:17.303Z,4.20
2023-02-05T06:20:19.160Z,2.90
2023-02-05T06:25:20.752Z,2.40
2023-02-05T06:30:22.420Z,3.70
2023-02-05T06:35:24.048Z,3.80
2023-02-05T06:40:28.029Z,4.50
2023-02-05T06:45:29.684Z,3.20
2023-02-05T06:50:31.383Z,2.67
2023-02-05T06:55:33.391Z,3.70
2023-02-05T07:00:35.797Z,2.50
2023-02-05T07:05:37.467Z,2.33
2023-02-05T07:10:39.249Z,4.27
2023-02-05T07:15:40.975Z,3.20
2023-02-05T07:20:42.566Z,2.50
2023-02-05T07:25:44.156Z,2.67
2023-02-05T07:30:47.802Z,2.30
2023-02-05T07:35:49.417Z,3.30
2023-02-05T07:40:51.291Z,2.00
2023-02-05T07:46:00.821Z,3.43
2023-02-05T07:51:02.866Z,2.40
2023-02-05T07:56:05.082Z,2.63
2023-02-05T08:01:07.090Z,3.83
2023-02-05T08:06:09.949Z,3.00
2023-02-05T08:11:15.221Z,4.83
2023-02-05T08:16:16.908Z,3.00
2023-02-05T08:21:19.461Z,3.37
2023-02-05T08:26:21.230Z,3.20
2023-02-05T08:31:23.211Z,3.37
2023-02-05T08:36:24.894Z,2.83
2023-02-05T08:41:26.525Z,2.13
2023-02-05T08:46:33.902Z,1.90
2023-02-05T08:51:45.437Z,2.60
2023-02-05T08:56:49.689Z,2.10
2023-02-05T09:01:51.409Z,2.37
2023-02-05T09:06:53.044Z,1.93
2023-02-05T09:11:54.705Z,3.10
2023-02-05T09:16:56.367Z,2.30
2023-02-05T09:21:58.106Z,3.53
2023-02-05T09:26:59.923Z,2.43
2023-02-05T09:32:01.574Z,4.13
2023-02-05T09:37:03.207Z,5.27
2023-02-05T09:42:30.992Z,2.67
2023-02-05T09:47:38.215Z,2.43
2023-02-05T09:52:44.909Z,2.93
2023-02-05T09:57:46.786Z,2.60
2023-02-05T10:02:53.368Z,2.53
2023-02-05T10:08:10.641Z,4.73
2023-02-05T10:13:21.021Z,2.70
2023-02-05T10:18:48.744Z,3.73
2023-02-05T10:24:02.232Z,2.63
2023-02-05T10:29:12.184Z,3.87
2023-02-05T10:34:13.697Z,2.03
2023-02-05T10:39:16.804Z,3.53
2023-02-05T10:44:29.166Z,1.67
2023-02-05T10:49:39.772Z,3.23
2023-02-05T10:54:41.866Z,3.53
2023-02-05T11:00:02.306Z,2.87
2023-02-05T11:05:16.344Z,2.13
2023-02-05T11:10:27.072Z,2.43
2023-02-05T11:15:30.938Z,2.47
2023-02-05T11:20:35.726Z,1.90
2023-02-05T11:25:58.404Z,3.87
2023-02-05T11:31:25.601Z,1.50
2023-02-05T11:36:27.366Z,2.13
2023-02-05T11:41:48.030Z,1.60
2023-02-05T11:46:56.800Z,4.30
2023-02-05T11:51:59.268Z,2.77
2023-02-05T11:57:01.265Z,1.63
2023-02-05T12:02:25.033Z,1.93
2023-02-05T12:07:29.377Z,3.47
2023-02-05T12:12:43.963Z,2.67
2023-02-05T12:17:54.808Z,2.30
2023-02-05T12:23:07.812Z,2.43
2023-02-05T12:28:40.678Z,1.83
2023-02-05T12:33:45.009Z,3.13
2023-02-05T12:39:04.774Z,3.40
2023-02-05T12:44:30.715Z,2.30
2023-02-05T12:49:58.576Z,2.40
2023-02-05T12:55:29.738Z,1.70
2023-02-05T13:00:54.437Z,2.30
2023-02-05T13:06:02.618Z,2.30
2023-02-05T13:11:16.032Z,1.60
2023-02-05T13:16:18.481Z,2.23
2023-02-05T13:21:39.757Z,1.63
2023-02-05T13:27:02.964Z,2.00
2023-02-05T13:32:15.635Z,1.73
2023-02-05T13:37:40.960Z,2.60
2023-02-05T13:43:10.892Z,2.73
2023-02-05T13:48:27.282Z,3.37
2023-02-05T13:53:56.416Z,2.20
2023-02-05T13:59:01.053Z,2.70
2023-02-05T14:04:06.179Z,2.90
2023-02-05T14:09:10.284Z,1.73
2023-02-05T14:14:18.057Z,1.63
2023-02-05T14:19:44.572Z,2.53
2023-02-05T14:24:48.691Z,2.07
2023-02-05T14:29:51.445Z,2.73
2023-02-05T14:35:32.442Z,3.63
2023-02-05T14:40:35.811Z,2.67
2023-02-05T14:45:44.255Z,1.70
2023-02-05T14:50:45.856Z,1.90
2023-02-05T14:55:49.935Z,1.90
2023-02-05T15:00:53.136Z,2.03
2023-02-05T15:06:08.205Z,2.20
2023-02-05T15:11:28.423Z,1.90
2023-02-05T15:16:29.992Z,2.30
2023-02-05T15:21:35.599Z,1.83
2023-02-05T15:27:02.587Z,1.67
2023-02-05T15:32:07.509Z,2.67
2023-02-05T15:37:09.017Z,2.90
2023-02-05T15:42:17.096Z,2.10
2023-02-05T15:47:22.375Z,2.70
2023-02-05T15:52:29.948Z,3.60
2023-02-05T15:57:32.051Z,3.37
2023-02-05T16:02:34.367Z,2.53
2023-02-05T16:07:41.520Z,2.90
2023-02-05T16:13:02.390Z,3.30
2023-02-05T16:18:06.820Z,4.13
2023-02-05T16:23:17.411Z,3.13
2023-02-05T16:28:23.464Z,2.80
2023-02-05T16:33:34.643Z,3.83
2023-02-05T16:38:36.435Z,3.50
2023-02-05T16:43:39.596Z,4.47
2023-02-05T16:48:47.238Z,4.53
2023-02-05T16:53:49.967Z,5.17
2023-02-05T16:58:54.718Z,3.60
2023-02-05T17:03:56.699Z,4.23
2023-02-05T17:08:58.304Z,4.83
2023-02-05T17:14:21.790Z,6.67
2023-02-05T17:19:28.724Z,4.13
2023-02-05T17:24:30.300Z,4.33
2023-02-05T17:29:33.463Z,3.87
2023-02-05T17:34:35.192Z,4.03
2023-02-05T17:39:36.906Z,4.23
2023-02-05T17:44:38.571Z,3.80
2023-02-05T17:49:40.649Z,4.63
2023-02-05T17:54:42.862Z,6.67
2023-02-05T17:59:45.028Z,8.00
2023-02-05T18:04:46.924Z,8.10
2023-02-05T18:09:48.619Z,9.10
2023-02-05T18:14:50.641Z,6.13
2023-02-05T18:19:52.372Z,9.57
2023-02-05T18:24:54.047Z,7.43
2023-02-05T18:29:55.848Z,7.90
2023-02-05T18:34:57.534Z,7.87
2023-02-05T18:39:59.090Z,7.13
2023-02-05T18:45:01.656Z,8.07
2023-02-05T18:50:03.446Z,9.20
2023-02-05T18:55:05.874Z,7.87
2023-02-05T19:00:08.214Z,7.20
2023-02-05T19:05:11.373Z,11.27
2023-02-05T19:10:13.081Z,8.20
2023-02-05T19:15:14.779Z,6.97
2023-02-05T19:20:16.826Z,7.77
2023-02-05T19:25:18.713Z,7.60
2023-02-05T19:30:20.573Z,7.17
2023-02-05T19:35:22.264Z,6.67
2023-02-05T19:40:23.947Z,7.77
2023-02-05T19:45:25.870Z,6.97
2023-02-05T19:50:27.802Z,8.63
2023-02-05T19:55:29.378Z,8.63
2023-02-05T20:00:31.039Z,8.37
2023-02-05T20:05:36.180Z,7.83
2023-02-05T20:10:37.754Z,8.50
2023-02-05T20:15:39.615Z,9.03
2023-02-05T20:20:41.310Z,7.13
2023-02-05T20:25:43.036Z,10.90
2023-02-05T20:31:03.126Z,9.30
2023-02-05T20:36:09.244Z,8.37
2023-02-05T20:41:12.982Z,9.80
2023-02-05T20:46:15.020Z,6.87
2023-02-05T20:51:19.257Z,8.00
2023-02-05T20:56:20.869Z,9.00
2023-02-05T21:01:24.059Z,8.27
2023-02-05T21:06:27.236Z,8.60
2023-02-05T21:11:29.599Z,10.37
2023-02-05T21:16:32.201Z,10.50
2023-02-05T21:21:35.929Z,11.17
2023-02-05T21:26:40.106Z,10.63
2023-02-05T21:31:45.038Z,10.23
2023-02-05T21:36:48.028Z,12.20
2023-02-05T21:41:54.033Z,11.77
2023-02-05T21:46:56.229Z,11.60
2023-02-05T21:51:57.982Z,11.77
2023-02-05T21:56:59.578Z,12.13
2023-02-05T22:02:01.184Z,10.17
2023-02-05T22:07:03.060Z,9.13
2023-02-05T22:12:06.220Z,10.10
2023-02-05T22:17:07.952Z,11.57
2023-02-05T22:22:09.720Z,13.27
2023-02-05T22:27:11.318Z,10.00
2023-02-05T22:32:12.974Z,12.43
2023-02-05T22:37:14.584Z,15.07
2023-02-05T22:42:18.762Z,9.40
2023-02-05T22:47:20.680Z,10.37
2023-02-05T22:52:22.298Z,10.93
2023-02-05T22:57:23.898Z,12.47
2023-02-05T23:02:25.508Z,10.90
2023-02-05T23:07:27.227Z,10.50
2023-02-05T23:12:28.819Z,11.03
2023-02-05T23:17:30.447Z,11.17
2023-02-05T23:22:32.268Z,12.40
2023-02-05T23:27:34.425Z,10.13
2023-02-05T23:32:36.064Z,10.67
2023-02-05T23:37:37.753Z,10.30
2023-02-05T23:42:39.369Z,10.80
2023-02-05T23:47:41.158Z,7.90
2023-02-05T23:52:42.795Z,9.70
2023-02-05T23:57:44.436Z,9.87
